createdAt,value
2023-05-14T00:00:44.676Z,102197.94
2023-05-14T00:03:11.711Z,102192.03
2023-05-14T00:05:38.453Z,102194.72
2023-05-14T00:08:05.264Z,102189.75
2023-05-14T00:10:31.802Z,102189.06
2023-05-14T00:12:58.427Z,102185.63
2023-05-14T00:15:24.907Z,102182.38
2023-05-14T00:17:51.464Z,102165.06
2023-05-14T00:20:18.044Z,102174.66
2023-05-14T00:22:44.640Z,102170.66
2023-05-14T00:25:11.181Z,102176.75
2023-05-14T00:27:37.924Z,102174.94
2023-05-14T00:30:06.977Z,102171.50
2023-05-14T00:32:33.638Z,102168.94
2023-05-14T00:35:00.376Z,102167.41
2023-05-14T00:37:26.868Z,102163.03
2023-05-14T00:39:53.325Z,102163.19
2023-05-14T00:42:19.879Z,102158.06
2023-05-14T00:44:46.315Z,102157.22
2023-05-14T00:47:13.271Z,102159.97
2023-05-14T00:49:40.889Z,102155.78
2023-05-14T00:52:07.797Z,102144.56
2023-05-14T00:54:36.410Z,102139.41
2023-05-14T00:57:04.741Z,102143.03
2023-05-14T00:59:31.436Z,102138.06
2023-05-14T01:01:58.116Z,102138.13
2023-05-14T01:04:24.849Z,102133.00
2023-05-14T01:07:29.737Z,102137.72
2023-05-14T01:10:08.529Z,102147.66
2023-05-14T01:12:47.729Z,102145.19
2023-05-14T01:15:17.182Z,102141.00
2023-05-14T01:17:48.726Z,102142.03
2023-05-14T01:20:15.616Z,102137.91
2023-05-14T01:22:42.625Z,102143.22
2023-05-14T01:25:09.565Z,102132.09
2023-05-14T01:27:42.737Z,102132.78
2023-05-14T01:30:27.412Z,102133.63
2023-05-14T01:32:58.251Z,102137.47
2023-05-14T01:35:28.697Z,102139.34
2023-05-14T01:38:03.752Z,102143.06
2023-05-14T01:40:32.791Z,102140.41
2023-05-14T01:42:59.370Z,102131.72
2023-05-14T01:45:26.272Z,102143.41
2023-05-14T01:47:52.891Z,102135.34
2023-05-14T01:50:19.665Z,102130.19
2023-05-14T01:52:48.274Z,102117.25
2023-05-14T01:55:15.969Z,102119.91
2023-05-14T01:57:42.437Z,102129.53
2023-05-14T02:00:09.415Z,102124.38
2023-05-14T02:02:36.112Z,102121.78
2023-05-14T02:05:03.907Z,102116.47
2023-05-14T02:07:32.064Z,102106.97
2023-05-14T02:09:58.620Z,102106.03
2023-05-14T02:12:25.092Z,102104.31
2023-05-14T02:14:51.799Z,102102.75
2023-05-14T02:17:18.544Z,102097.69
2023-05-14T02:19:45.221Z,102089.19
2023-05-14T02:22:12.092Z,102110.28
2023-05-14T02:24:38.880Z,102109.50
2023-05-14T02:27:06.272Z,102110.63
2023-05-14T02:29:32.737Z,102107.19
2023-05-14T02:31:59.250Z,102104.63
2023-05-14T02:34:25.974Z,102105.66
2023-05-14T02:36:52.506Z,102104.69
2023-05-14T02:39:19.011Z,102098.53
2023-05-14T02:41:45.573Z,102095.03
2023-05-14T02:44:12.234Z,102089.88
2023-05-14T02:46:38.747Z,102092.53
2023-05-14T02:49:05.321Z,102095.34
2023-05-14T02:51:31.771Z,102090.81
2023-05-14T02:53:58.322Z,102091.94
2023-05-14T02:56:24.961Z,102090.97
2023-05-14T02:58:51.481Z,102089.44
2023-05-14T03:01:18.853Z,102082.34
2023-05-14T03:03:45.838Z,102084.38
2023-05-14T03:06:12.738Z,102088.84
2023-05-14T03:08:39.226Z,102086.25
2023-05-14T03:11:06.882Z,102090.84
2023-05-14T03:13:33.356Z,102084.69
2023-05-14T03:15:59.850Z,102083.84
2023-05-14T03:18:28.308Z,102077.78
2023-05-14T03:20:54.856Z,102091.22
2023-05-14T03:23:21.321Z,102095.56
2023-05-14T03:25:47.836Z,102090.34
2023-05-14T03:28:14.348Z,102085.97
2023-05-14T03:30:40.969Z,102088.72
2023-05-14T03:33:07.647Z,102086.06
2023-05-14T03:35:34.264Z,102084.34
2023-05-14T03:38:00.797Z,102085.28
2023-05-14T03:40:29.528Z,102092.31
2023-05-14T03:42:56.176Z,102088.63
2023-05-14T03:45:22.713Z,102091.22
2023-05-14T03:47:49.224Z,102085.91
2023-05-14T03:50:15.914Z,102084.88
2023-05-14T03:52:42.405Z,102084.88
2023-05-14T03:55:09.381Z,102075.13
2023-05-14T03:57:36.729Z,102066.13
2023-05-14T04:00:04.612Z,102074.94
2023-05-14T04:02:31.206Z,102068.09
2023-05-14T04:04:57.779Z,102064.50
2023-05-14T04:07:24.372Z,102074.00
2023-05-14T04:09:50.803Z,102071.34
2023-05-14T04:12:17.307Z,102064.31
2023-05-14T04:14:43.801Z,102065.28
2023-05-14T04:17:10.245Z,102068.84
2023-05-14T04:19:36.776Z,102059.13
2023-05-14T04:22:03.437Z,102062.69
2023-05-14T04:24:29.885Z,102068.78
2023-05-14T04:26:56.339Z,102066.19
2023-05-14T04:29:22.863Z,102066.19
2023-05-14T04:31:50.178Z,102064.31
2023-05-14T04:34:16.656Z,102067.84
2023-05-14T04:36:43.250Z,102062.63
2023-05-14T04:39:09.948Z,102066.06
2023-05-14T04:41:36.864Z,102075.56
2023-05-14T04:44:03.959Z,102067.41
2023-05-14T04:46:30.561Z,102069.75
2023-05-14T04:48:57.678Z,102062.13
2023-05-14T04:51:24.450Z,102063.69
2023-05-14T04:53:50.979Z,102067.63
2023-05-14T04:56:17.542Z,102067.44
2023-05-14T04:58:44.032Z,102067.31
2023-05-14T05:01:10.572Z,102072.28
2023-05-14T05:03:37.192Z,102076.28
2023-05-14T05:06:03.822Z,102071.59
2023-05-14T05:08:30.815Z,102073.97
2023-05-14T05:10:57.235Z,102075.44
2023-05-14T05:13:23.719Z,102073.38
2023-05-14T05:15:51.132Z,102080.22
2023-05-14T05:18:17.790Z,102074.72
2023-05-14T05:20:44.325Z,102077.38
2023-05-14T05:23:10.946Z,102081.84
2023-05-14T05:25:37.450Z,102079.19
2023-05-14T05:28:04.128Z,102072.81
2023-05-14T05:30:30.806Z,102085.94
2023-05-14T05:32:57.725Z,102084.75
2023-05-14T05:35:24.594Z,102095.09
2023-05-14T05:37:51.093Z,102086.09
2023-05-14T05:40:17.823Z,102086.38
2023-05-14T05:42:44.630Z,102083.50
2023-05-14T05:45:11.307Z,102079.94
2023-05-14T05:47:37.814Z,102084.00
2023-05-14T05:50:04.686Z,102080.16
2023-05-14T05:52:31.244Z,102093.16
2023-05-14T05:54:58.143Z,102098.81
2023-05-14T05:57:27.076Z,102093.13
2023-05-14T05:59:53.660Z,102092.84
2023-05-14T06:02:20.371Z,102090.03
2023-05-14T06:04:46.889Z,102089.13
2023-05-14T06:07:13.348Z,102090.88
2023-05-14T06:09:39.851Z,102092.69
2023-05-14T06:12:06.784Z,102082.69
2023-05-14T06:14:33.548Z,102079.94
2023-05-14T06:17:00.273Z,102092.44
2023-05-14T06:19:26.946Z,102105.56
2023-05-14T06:21:53.439Z,102100.69
2023-05-14T06:24:20.390Z,102085.69
2023-05-14T06:26:48.790Z,102094.72
2023-05-14T06:29:15.346Z,102109.38
2023-05-14T06:31:42.129Z,102109.19
2023-05-14T06:34:09.181Z,102117.09
2023-05-14T06:36:35.654Z,102101.56
2023-05-14T06:39:02.151Z,102107.06
2023-05-14T06:41:29.551Z,102096.69
2023-05-14T06:43:56.022Z,102102.63
2023-05-14T06:46:22.504Z,102099.56
2023-05-14T06:48:49.122Z,102106.84
2023-05-14T06:51:15.738Z,102102.44
2023-05-14T06:53:42.243Z,102097.16
2023-05-14T06:56:08.709Z,102095.66
2023-05-14T06:58:35.396Z,102083.25
2023-05-14T07:01:01.966Z,102089.91
2023-05-14T07:03:29.224Z,102089.69
2023-05-14T07:05:55.754Z,102086.38
2023-05-14T07:08:22.198Z,102079.53
2023-05-14T07:10:48.679Z,102085.31
2023-05-14T07:13:15.169Z,102088.06
2023-05-14T07:15:41.672Z,102091.28
2023-05-14T07:18:08.767Z,102092.97
2023-05-14T07:20:35.327Z,102087.84
2023-05-14T07:23:01.934Z,102079.72
2023-05-14T07:25:28.482Z,102082.28
2023-05-14T07:27:55.228Z,102086.63
2023-05-14T07:30:26.702Z,102072.47
2023-05-14T07:32:53.352Z,102071.34
2023-05-14T07:35:19.998Z,102079.06
2023-05-14T07:37:46.554Z,102077.88
2023-05-14T07:40:13.353Z,102079.94
2023-05-14T07:42:39.853Z,102080.69
2023-05-14T07:45:06.928Z,102086.19
2023-05-14T07:47:33.769Z,102069.78
2023-05-14T07:50:00.379Z,102076.06
2023-05-14T07:52:26.892Z,102068.06
2023-05-14T07:54:53.480Z,102069.00
2023-05-14T07:57:20.188Z,102066.09
2023-05-14T07:59:47.765Z,102059.53
2023-05-14T08:02:16.084Z,102071.81
2023-05-14T08:04:42.812Z,102066.47
2023-05-14T08:07:09.358Z,102067.25
2023-05-14T08:09:35.949Z,102068.25
2023-05-14T08:12:02.508Z,102066.72
2023-05-14T08:14:29.089Z,102062.31
2023-05-14T08:16:55.836Z,102066.13
2023-05-14T08:19:24.089Z,102061.59
2023-05-14T08:21:51.375Z,102060.00
2023-05-14T08:24:18.973Z,102065.63
2023-05-14T08:26:45.518Z,102063.44
2023-05-14T08:29:13.426Z,102059.78
2023-05-14T08:31:42.278Z,102067.78
2023-05-14T08:34:08.863Z,102057.53
2023-05-14T08:36:35.531Z,102056.16
2023-05-14T08:39:02.047Z,102055.03
2023-05-14T08:41:28.958Z,102055.19
2023-05-14T08:44:12.029Z,102064.97
2023-05-14T08:46:39.879Z,102059.06
2023-05-14T08:49:32.412Z,102050.44
2023-05-14T08:52:00.177Z,102044.34
2023-05-14T08:54:28.710Z,102044.56
2023-05-14T08:56:55.688Z,102039.19
2023-05-14T08:59:22.111Z,102044.78
2023-05-14T09:01:51.938Z,102040.19
2023-05-14T09:04:24.334Z,102046.56
2023-05-14T09:06:53.476Z,102038.00
2023-05-14T09:09:24.348Z,102039.66
2023-05-14T09:11:52.416Z,102038.50
2023-05-14T09:14:19.360Z,102027.63
2023-05-14T09:16:48.142Z,102030.88
2023-05-14T09:19:15.879Z,102031.94
2023-05-14T09:21:44.588Z,102027.22
2023-05-14T09:24:19.380Z,102029.66
2023-05-14T09:26:51.713Z,102021.06
2023-05-14T09:29:18.420Z,102020.53
2023-05-14T09:31:45.273Z,102023.22
2023-05-14T09:34:12.349Z,102024.78
2023-05-14T09:36:38.864Z,102015.19
2023-05-14T09:39:05.724Z,102009.63
2023-05-14T09:41:32.292Z,102007.84
2023-05-14T09:43:58.769Z,102008.25
2023-05-14T09:46:30.051Z,102003.31
2023-05-14T09:48:56.902Z,102008.06
2023-05-14T09:51:23.930Z,102008.97
2023-05-14T09:53:53.416Z,102003.78
2023-05-14T09:56:21.643Z,102007.84
2023-05-14T09:58:48.637Z,102005.38
2023-05-14T10:01:18.904Z,101994.66
2023-05-14T10:03:46.244Z,101987.53
2023-05-14T10:06:15.082Z,102003.25
2023-05-14T10:08:44.823Z,101996.19
2023-05-14T10:11:22.337Z,102001.22
2023-05-14T10:13:59.847Z,101999.47
2023-05-14T10:16:34.060Z,101995.41
2023-05-14T10:19:14.932Z,101994.03
2023-05-14T10:21:47.376Z,101999.50
2023-05-14T10:24:14.803Z,101987.91
2023-05-14T10:26:42.166Z,101986.66
2023-05-14T10:29:12.768Z,101990.16
2023-05-14T10:31:49.727Z,101988.81
2023-05-14T10:34:40.814Z,101984.69
2023-05-14T10:37:24.728Z,101983.78
2023-05-14T10:39:58.991Z,101982.97
2023-05-14T10:42:32.493Z,101985.91
2023-05-14T10:45:12.611Z,101971.44
2023-05-14T10:47:42.531Z,101968.53
2023-05-14T10:50:11.348Z,101972.16
2023-05-14T10:52:38.188Z,101966.91
2023-05-14T10:55:10.072Z,101961.88
2023-05-14T10:57:39.857Z,101962.91
2023-05-14T11:00:10.724Z,101955.59
2023-05-14T11:02:43.124Z,101960.47
2023-05-14T11:05:17.706Z,101954.38
2023-05-14T11:07:45.512Z,101945.81
2023-05-14T11:10:14.752Z,101947.75
2023-05-14T11:12:43.683Z,101954.19
2023-05-14T11:15:12.671Z,101950.94
2023-05-14T11:17:41.569Z,101947.72
2023-05-14T11:20:09.476Z,101949.44
2023-05-14T11:22:37.670Z,101938.72
2023-05-14T11:25:05.035Z,101940.53
2023-05-14T11:27:34.009Z,101933.31
2023-05-14T11:30:03.957Z,101937.09
2023-05-14T11:32:32.902Z,101937.91
2023-05-14T11:34:59.371Z,101921.28
2023-05-14T11:37:26.144Z,101927.00
2023-05-14T11:39:55.151Z,101928.03
2023-05-14T11:42:22.569Z,101919.91
2023-05-14T11:44:51.935Z,101921.97
2023-05-14T11:47:19.917Z,101921.28
2023-05-14T11:49:47.233Z,101917.25
2023-05-14T11:52:15.080Z,101917.28
2023-05-14T11:54:43.205Z,101912.38
2023-05-14T11:57:12.577Z,101915.94
2023-05-14T11:59:39.438Z,101922.50
2023-05-14T12:02:12.477Z,101911.13
2023-05-14T12:04:39.771Z,101911.09
2023-05-14T12:07:15.255Z,101905.34
2023-05-14T12:09:49.682Z,101901.66
2023-05-14T12:12:22.019Z,101904.53
2023-05-14T12:14:49.891Z,101885.25
2023-05-14T12:17:23.353Z,101898.63
2023-05-14T12:19:51.747Z,101891.50
2023-05-14T12:22:19.150Z,101895.03
2023-05-14T12:24:56.599Z,101895.34
2023-05-14T12:27:24.613Z,101894.19
2023-05-14T12:30:19.072Z,101883.28
2023-05-14T12:32:46.361Z,101879.84
2023-05-14T12:35:12.862Z,101884.88
2023-05-14T12:37:40.051Z,101884.69
2023-05-14T12:40:09.628Z,101881.25
2023-05-14T12:42:36.523Z,101871.38
2023-05-14T12:45:06.963Z,101863.50
2023-05-14T12:47:33.558Z,101870.69
2023-05-14T12:50:00.195Z,101870.00
2023-05-14T12:52:37.698Z,101867.28
2023-05-14T12:55:06.504Z,101860.53
2023-05-14T12:57:35.382Z,101861.56
2023-05-14T13:00:02.494Z,101857.94
2023-05-14T13:02:29.076Z,101861.41
2023-05-14T13:04:55.657Z,101855.13
2023-05-14T13:07:22.288Z,101860.44
2023-05-14T13:09:48.782Z,101856.94
2023-05-14T13:12:15.568Z,101855.47
2023-05-14T13:14:42.167Z,101850.78
2023-05-14T13:17:08.733Z,101844.13
2023-05-14T13:19:35.398Z,101852.50
2023-05-14T13:22:01.949Z,101844.03
2023-05-14T13:24:28.448Z,101848.94
2023-05-14T13:26:54.931Z,101850.44
2023-05-14T13:29:21.425Z,101842.84
2023-05-14T13:31:47.976Z,101840.47
2023-05-14T13:34:14.695Z,101838.91
2023-05-14T13:36:43.484Z,101832.31
2023-05-14T13:39:14.606Z,101839.44
2023-05-14T13:41:41.525Z,101838.16
2023-05-14T13:44:08.000Z,101834.91
2023-05-14T13:46:34.971Z,101831.66
2023-05-14T13:49:01.590Z,101837.53
2023-05-14T13:51:28.079Z,101825.75
2023-05-14T13:56:26.135Z,101828.44
2023-05-14T13:58:52.824Z,101819.47
2023-05-14T14:01:19.469Z,101817.91
2023-05-14T14:03:46.002Z,101812.91
2023-05-14T14:06:12.593Z,101809.69
2023-05-14T14:08:39.089Z,101803.69
2023-05-14T14:11:05.840Z,101811.84
2023-05-14T14:13:32.284Z,101814.16
2023-05-14T14:15:58.927Z,101808.19
2023-05-14T14:18:25.761Z,101817.53
2023-05-14T14:20:52.546Z,101796.03
2023-05-14T14:23:19.684Z,101801.84
2023-05-14T14:25:46.273Z,101806.56
2023-05-14T14:28:12.904Z,101793.78
2023-05-14T14:30:39.436Z,101796.94
2023-05-14T14:33:06.063Z,101794.75
2023-05-14T14:35:33.405Z,101788.28
2023-05-14T14:37:59.872Z,101795.91
2023-05-14T14:40:26.395Z,101796.81
2023-05-14T14:42:52.896Z,101788.84
2023-05-14T14:45:19.389Z,101790.03
2023-05-14T14:47:46.794Z,101793.44
2023-05-14T14:50:13.604Z,101795.78
2023-05-14T14:52:45.416Z,101795.75
2023-05-14T14:55:12.517Z,101796.28
2023-05-14T14:57:39.053Z,101793.44
2023-05-14T15:00:06.883Z,101781.41
2023-05-14T15:02:33.668Z,101790.56
2023-05-14T15:05:00.341Z,101792.06
2023-05-14T15:07:26.819Z,101786.66
2023-05-14T15:09:53.263Z,101786.50
2023-05-14T15:12:19.804Z,101784.63
2023-05-14T15:14:46.236Z,101784.28
2023-05-14T15:17:12.722Z,101784.94
2023-05-14T15:19:39.169Z,101778.38
2023-05-14T15:22:05.727Z,101780.56
2023-05-14T15:24:32.225Z,101778.53
2023-05-14T15:26:58.704Z,101775.31
2023-05-14T15:29:25.289Z,101774.16
2023-05-14T15:31:51.875Z,101776.34
2023-05-14T15:34:18.458Z,101776.50
2023-05-14T15:36:44.934Z,101769.44
2023-05-14T15:39:11.530Z,101773.66
2023-05-14T15:41:38.030Z,101772.81
2023-05-14T15:44:04.753Z,101763.84
2023-05-14T15:46:31.377Z,101763.00
2023-05-14T15:48:58.635Z,101756.94
2023-05-14T15:51:25.160Z,101759.41
2023-05-14T15:53:54.067Z,101753.81
2023-05-14T15:56:22.454Z,101747.88
2023-05-14T15:58:49.710Z,101762.84
2023-05-14T16:01:16.271Z,101745.47
2023-05-14T16:03:42.938Z,101749.03
2023-05-14T16:06:11.580Z,101750.03
2023-05-14T16:08:38.324Z,101756.47
2023-05-14T16:11:05.520Z,101754.63
2023-05-14T16:13:32.127Z,101761.97
2023-05-14T16:15:59.534Z,101759.97
2023-05-14T16:18:26.377Z,101765.38
2023-05-14T16:20:53.521Z,101766.38
2023-05-14T16:23:20.009Z,101761.91
2023-05-14T16:25:46.566Z,101762.53
2023-05-14T16:28:13.572Z,101763.16
2023-05-14T16:30:40.106Z,101762.94
2023-05-14T16:33:06.841Z,101759.66
2023-05-14T16:35:33.971Z,101758.75
2023-05-14T16:38:00.600Z,101768.84
2023-05-14T16:40:27.146Z,101757.56
2023-05-14T16:42:53.690Z,101764.97
2023-05-14T16:45:20.262Z,101755.88
2023-05-14T16:47:46.756Z,101763.88
2023-05-14T16:50:13.325Z,101765.69
2023-05-14T16:52:39.968Z,101764.50
2023-05-14T16:55:06.758Z,101771.50
2023-05-14T16:57:34.211Z,101777.00
2023-05-14T17:00:00.809Z,101765.50
2023-05-14T17:02:27.297Z,101774.66
2023-05-14T17:04:55.281Z,101781.00
2023-05-14T17:07:21.860Z,101791.97
2023-05-14T17:09:48.711Z,101784.88
2023-05-14T17:12:15.364Z,101788.94
2023-05-14T17:14:41.997Z,101776.44
2023-05-14T17:17:08.538Z,101781.34
2023-05-14T17:19:35.111Z,101778.78
2023-05-14T17:22:01.647Z,101782.19
2023-05-14T17:24:28.295Z,101777.41
2023-05-14T17:26:54.725Z,101779.91
2023-05-14T17:29:23.417Z,101780.16
2023-05-14T17:31:51.154Z,101778.38
2023-05-14T17:34:17.766Z,101783.19
2023-05-14T17:36:44.345Z,101786.06
2023-05-14T17:39:10.854Z,101789.06
2023-05-14T17:41:37.470Z,101783.09
2023-05-14T17:44:04.104Z,101777.72
2023-05-14T17:46:30.779Z,101770.50
2023-05-14T17:48:58.321Z,101778.16
2023-05-14T17:51:25.238Z,101780.81
2023-05-14T17:53:51.719Z,101786.31
2023-05-14T17:56:18.823Z,101791.38
2023-05-14T17:58:45.975Z,101798.41
2023-05-14T18:01:12.760Z,101793.00
2023-05-14T18:03:39.334Z,101803.56
2023-05-14T18:06:06.102Z,101803.03
2023-05-14T18:08:32.580Z,101807.16
2023-05-14T18:11:00.734Z,101801.91
2023-05-14T18:13:27.204Z,101805.16
2023-05-14T18:15:54.389Z,101803.50
2023-05-14T18:18:21.707Z,101804.63
2023-05-14T18:20:49.389Z,101807.31
2023-05-14T18:23:16.042Z,101814.88
2023-05-14T18:25:42.811Z,101807.28
2023-05-14T18:28:09.621Z,101817.03
2023-05-14T18:30:36.205Z,101814.00
2023-05-14T18:33:03.966Z,101829.75
2023-05-14T18:35:30.884Z,101825.16
2023-05-14T18:37:57.429Z,101825.28
2023-05-14T18:40:23.964Z,101831.78
2023-05-14T18:42:50.648Z,101831.22
2023-05-14T18:45:17.183Z,101826.47
2023-05-14T18:47:43.800Z,101828.69
2023-05-14T18:50:10.523Z,101835.00
2023-05-14T18:52:37.054Z,101836.00
2023-05-14T18:55:03.892Z,101844.66
2023-05-14T18:57:32.181Z,101835.63
2023-05-14T19:00:03.877Z,101844.13
2023-05-14T19:02:30.862Z,101836.34
2023-05-14T19:04:57.454Z,101834.13
2023-05-14T19:07:23.937Z,101837.03
2023-05-14T19:09:50.687Z,101848.19
2023-05-14T19:12:17.217Z,101843.69
2023-05-14T19:14:43.718Z,101845.03
2023-05-14T19:17:10.376Z,101846.44
2023-05-14T19:19:37.853Z,101838.91
2023-05-14T19:22:04.750Z,101843.28
2023-05-14T19:24:31.182Z,101835.44
2023-05-14T19:26:57.803Z,101843.31
2023-05-14T19:29:24.876Z,101841.59
2023-05-14T19:31:51.345Z,101832.72
2023-05-14T19:34:17.867Z,101842.16
2023-05-14T19:36:44.496Z,101848.69
2023-05-14T19:39:11.191Z,101841.97
2023-05-14T19:41:37.786Z,101844.78
2023-05-14T19:44:04.290Z,101847.16
2023-05-14T19:46:30.891Z,101833.88
2023-05-14T19:48:57.380Z,101845.41
2023-05-14T19:51:23.894Z,101838.50
2023-05-14T19:53:50.495Z,101839.81
2023-05-14T19:56:17.131Z,101844.31
2023-05-14T19:58:44.465Z,101840.84
2023-05-14T20:01:12.015Z,101837.66
2023-05-14T20:03:38.984Z,101838.19
2023-05-14T20:06:07.002Z,101841.44
2023-05-14T20:08:33.651Z,101841.97
2023-05-14T20:11:00.246Z,101842.06
2023-05-14T20:13:26.750Z,101839.97
2023-05-14T20:15:55.015Z,101835.81
2023-05-14T20:18:21.875Z,101841.13
2023-05-14T20:20:49.170Z,101827.50
2023-05-14T20:23:15.942Z,101837.91
2023-05-14T20:25:43.107Z,101835.81
2023-05-14T20:28:10.337Z,101836.66
2023-05-14T20:30:37.075Z,101833.16
2023-05-14T20:33:04.038Z,101829.00
2023-05-14T20:35:31.085Z,101821.31
2023-05-14T20:37:57.552Z,101823.09
2023-05-14T20:40:24.716Z,101831.34
2023-05-14T20:42:51.718Z,101816.63
2023-05-14T20:45:18.353Z,101822.03
2023-05-14T20:47:44.964Z,101821.44
2023-05-14T20:50:11.768Z,101815.44
2023-05-14T20:52:38.251Z,101818.44
2023-05-14T20:55:05.192Z,101814.94
2023-05-14T20:57:31.817Z,101818.53
2023-05-14T20:59:58.307Z,101815.13
2023-05-14T21:02:25.102Z,101819.94
2023-05-14T21:04:52.325Z,101815.63
2023-05-14T21:07:18.860Z,101814.13
2023-05-14T21:09:50.718Z,101808.81
2023-05-14T21:12:17.242Z,101805.53
2023-05-14T21:14:43.720Z,101803.81
2023-05-14T21:17:10.633Z,101805.53
2023-05-14T21:19:37.257Z,101812.97
2023-05-14T21:22:03.752Z,101810.53
2023-05-14T21:24:30.258Z,101813.28
2023-05-14T21:26:56.783Z,101813.38
2023-05-14T21:29:25.304Z,101809.34
2023-05-14T21:31:51.858Z,101819.34
2023-05-14T21:34:18.330Z,101809.66
2023-05-14T21:36:44.811Z,101813.34
2023-05-14T21:39:11.405Z,101811.66
2023-05-14T21:41:37.861Z,101814.41
2023-05-14T21:44:04.384Z,101809.31
2023-05-14T21:46:31.308Z,101802.06
2023-05-14T21:48:57.849Z,101796.94
2023-05-14T21:51:24.523Z,101795.25
2023-05-14T21:53:51.063Z,101796.19
2023-05-14T21:56:17.614Z,101792.00
2023-05-14T21:58:44.990Z,101795.63
2023-05-14T22:01:11.541Z,101793.28
2023-05-14T22:03:38.324Z,101792.41
2023-05-14T22:06:05.396Z,101789.00
2023-05-14T22:08:32.232Z,101801.75
2023-05-14T22:10:58.789Z,101792.28
2023-05-14T22:13:25.300Z,101784.28
2023-05-14T22:16:01.193Z,101778.13
2023-05-14T22:18:36.589Z,101779.81
2023-05-14T22:21:03.641Z,101786.09
2023-05-14T22:23:30.246Z,101783.44
2023-05-14T22:25:57.390Z,101774.91
2023-05-14T22:28:24.016Z,101775.97
2023-05-14T22:30:50.705Z,101771.88
2023-05-14T22:33:19.143Z,101788.28
2023-05-14T22:35:45.583Z,101776.94
2023-05-14T22:38:12.684Z,101776.38
2023-05-14T22:40:39.247Z,101774.53
2023-05-14T22:43:05.713Z,101774.75
2023-05-14T22:45:32.179Z,101769.53
2023-05-14T22:47:58.744Z,101759.88
2023-05-14T22:50:25.688Z,101758.91
2023-05-14T22:52:52.205Z,101755.28
2023-05-14T22:55:18.757Z,101750.81
2023-05-14T22:57:45.527Z,101759.75
2023-05-14T23:00:12.712Z,101746.00
2023-05-14T23:02:39.388Z,101751.31
2023-05-14T23:05:07.867Z,101753.78
2023-05-14T23:07:35.024Z,101740.00
2023-05-14T23:10:01.881Z,101749.50
2023-05-14T23:12:28.350Z,101742.59
2023-05-14T23:14:54.903Z,101734.59
2023-05-14T23:17:21.436Z,101739.25
2023-05-14T23:19:47.971Z,101748.88
2023-05-14T23:22:14.459Z,101747.91
2023-05-14T23:24:40.920Z,101742.59
2023-05-14T23:27:07.656Z,101737.16
2023-05-14T23:29:34.136Z,101731.84
2023-05-14T23:32:00.691Z,101726.44
2023-05-14T23:34:27.271Z,101725.69
2023-05-14T23:36:53.927Z,101724.63
2023-05-14T23:39:21.466Z,101719.31
2023-05-14T23:41:48.052Z,101716.53
2023-05-14T23:44:15.117Z,101705.25
2023-05-14T23:46:41.762Z,101707.81
2023-05-14T23:49:08.292Z,101697.34
2023-05-14T23:51:34.792Z,101706.09
2023-05-14T23:54:01.237Z,101702.69
2023-05-14T23:56:29.249Z,101693.94
2023-05-14T23:58:56.709Z,101690.34
